createdAt,value
2022-12-08T00:01:55.650Z,88.63
2022-12-08T00:04:28.323Z,88.91
2022-12-08T00:07:19.660Z,88.91
2022-12-08T00:09:52.185Z,88.72
2022-12-08T00:12:24.899Z,88.71
2022-12-08T00:14:57.480Z,88.03
2022-12-08T00:17:29.957Z,88.35
2022-12-08T00:20:02.587Z,88.72
2022-12-08T00:22:35.091Z,88.32
2022-12-08T00:25:07.841Z,88.39
2022-12-08T00:27:40.416Z,89.05
2022-12-08T00:30:13.250Z,88.69
2022-12-08T00:32:45.933Z,88.62
2022-12-08T00:35:18.620Z,88.74
2022-12-08T00:37:53.964Z,88.47
2022-12-08T00:40:29.316Z,88.95
2022-12-08T00:43:01.811Z,88.76
2022-12-08T00:45:34.348Z,89.21
2022-12-08T00:48:07.176Z,88.66
2022-12-08T00:50:39.703Z,88.22
2022-12-08T00:53:12.261Z,88.11
2022-12-08T00:55:44.755Z,87.88
2022-12-08T00:58:17.343Z,89.07
2022-12-08T01:00:50.080Z,88.36
2022-12-08T01:03:22.696Z,88.69
2022-12-08T01:05:55.355Z,88.53
2022-12-08T01:08:27.931Z,87.97
2022-12-08T01:11:11.963Z,87.94
2022-12-08T01:13:47.443Z,88.16
2022-12-08T01:16:29.588Z,88.21
2022-12-08T01:19:03.792Z,88.66
2022-12-08T01:21:36.340Z,87.96
2022-12-08T01:24:18.933Z,88.05
2022-12-08T01:26:51.678Z,87.75
2022-12-08T01:29:24.474Z,88.10
2022-12-08T01:31:57.126Z,87.61
2022-12-08T01:34:29.701Z,87.34
2022-12-08T01:37:02.270Z,87.72
2022-12-08T01:39:35.659Z,87.79
2022-12-08T01:42:21.780Z,87.42
2022-12-08T01:44:59.522Z,87.22
2022-12-08T01:47:47.187Z,87.50
2022-12-08T01:50:22.096Z,87.32
2022-12-08T01:53:10.084Z,87.13
2022-12-08T01:55:53.501Z,86.91
2022-12-08T01:58:35.642Z,87.12
2022-12-08T02:01:08.469Z,87.55
2022-12-08T02:03:49.097Z,87.04
2022-12-08T02:06:21.940Z,87.34
2022-12-08T02:08:55.286Z,87.34
2022-12-08T02:11:27.916Z,87.07
2022-12-08T02:14:06.391Z,87.84
2022-12-08T02:17:58.328Z,87.34
2022-12-08T02:20:48.230Z,87.73
2022-12-08T02:23:36.826Z,86.63
2022-12-08T02:26:46.436Z,87.64
2022-12-08T02:29:52.174Z,87.92
2022-12-08T02:33:18.734Z,88.02
2022-12-08T02:36:02.911Z,87.82
2022-12-08T02:39:05.918Z,87.64
2022-12-08T02:41:47.265Z,87.26
2022-12-08T02:44:36.236Z,87.74
2022-12-08T02:47:16.564Z,87.90
2022-12-08T02:49:49.258Z,87.64
2022-12-08T02:52:21.611Z,87.91
2022-12-08T02:55:03.478Z,88.06
2022-12-08T02:57:54.011Z,87.78
2022-12-08T03:00:48.653Z,87.96
2022-12-08T03:03:46.009Z,87.72
2022-12-08T03:06:48.761Z,88.26
2022-12-08T03:09:46.869Z,88.48
2022-12-08T03:12:43.538Z,88.64
2022-12-08T03:15:21.449Z,88.27
2022-12-08T03:17:59.426Z,87.47
2022-12-08T03:20:35.030Z,88.07
2022-12-08T03:23:13.168Z,88.40
2022-12-08T03:25:59.600Z,88.04
2022-12-08T03:28:32.318Z,88.17
2022-12-08T03:31:12.180Z,88.82
2022-12-08T03:33:51.237Z,88.33
2022-12-08T03:36:25.075Z,88.63
2022-12-08T03:38:57.723Z,88.60
2022-12-08T03:41:30.293Z,88.76
2022-12-08T03:44:02.950Z,89.19
2022-12-08T03:46:35.479Z,88.91
2022-12-08T03:49:08.034Z,88.47
2022-12-08T03:51:40.746Z,89.08
2022-12-08T03:54:13.552Z,88.75
2022-12-08T03:56:46.165Z,88.72
2022-12-08T03:59:18.741Z,88.37
2022-12-08T04:01:51.346Z,88.66
2022-12-08T04:04:24.015Z,88.42
2022-12-08T04:06:56.737Z,88.55
2022-12-08T04:09:29.454Z,88.82
2022-12-08T04:12:02.000Z,88.63
2022-12-08T04:14:34.707Z,88.88
2022-12-08T04:17:07.327Z,88.70
2022-12-08T04:19:40.947Z,88.93
2022-12-08T04:22:13.513Z,88.87
2022-12-08T04:24:46.026Z,88.91
2022-12-08T04:27:18.590Z,88.90
2022-12-08T04:29:51.150Z,88.42
2022-12-08T04:32:23.724Z,88.31
2022-12-08T04:34:56.264Z,88.15
2022-12-08T04:37:29.093Z,88.19
2022-12-08T04:40:01.778Z,88.16
2022-12-08T04:42:34.580Z,87.83
2022-12-08T04:45:07.651Z,88.18
2022-12-08T04:47:40.319Z,87.84
2022-12-08T04:50:13.198Z,87.52
2022-12-08T04:52:45.825Z,87.20
2022-12-08T04:55:18.643Z,87.67
2022-12-08T04:57:51.369Z,87.59
2022-12-08T05:00:23.949Z,88.18
2022-12-08T05:02:56.518Z,88.10
2022-12-08T05:05:29.132Z,87.72
2022-12-08T05:08:01.797Z,87.39
2022-12-08T05:10:34.662Z,87.61
2022-12-08T05:13:07.531Z,86.98
2022-12-08T05:15:40.097Z,86.25
2022-12-08T05:18:14.657Z,86.83
2022-12-08T05:20:47.449Z,86.47
2022-12-08T05:23:20.022Z,86.56
2022-12-08T05:25:53.342Z,87.28
2022-12-08T05:28:41.176Z,87.60
2022-12-08T05:31:19.571Z,88.01
2022-12-08T05:34:02.922Z,87.63
2022-12-08T05:36:36.387Z,87.25
2022-12-08T05:39:15.098Z,86.72
2022-12-08T05:41:47.702Z,86.90
2022-12-08T05:44:20.313Z,87.08
2022-12-08T05:46:53.148Z,87.29
2022-12-08T05:49:28.867Z,86.89
2022-12-08T05:52:09.974Z,86.98
2022-12-08T05:54:44.674Z,87.03
2022-12-08T05:57:22.203Z,86.66
2022-12-08T05:59:59.317Z,86.57
2022-12-08T06:02:39.221Z,86.53
2022-12-08T06:05:14.585Z,86.65
2022-12-08T06:07:47.418Z,86.96
2022-12-08T06:10:21.394Z,87.22
2022-12-08T06:12:54.233Z,87.38
2022-12-08T06:15:28.300Z,87.01
2022-12-08T06:18:01.223Z,87.29
2022-12-08T06:20:40.789Z,87.18
2022-12-08T06:23:16.850Z,87.29
2022-12-08T06:25:50.126Z,87.13
2022-12-08T06:28:25.229Z,87.33
2022-12-08T06:31:01.116Z,87.02
2022-12-08T06:33:33.749Z,87.23
2022-12-08T06:36:08.079Z,87.25
2022-12-08T06:38:44.071Z,86.60
2022-12-08T06:41:18.617Z,86.86
2022-12-08T06:43:54.829Z,87.77
2022-12-08T06:46:27.658Z,88.17
2022-12-08T06:49:00.258Z,88.30
2022-12-08T06:51:37.008Z,87.91
2022-12-08T06:54:10.901Z,87.52
2022-12-08T06:56:47.154Z,87.29
2022-12-08T06:59:20.259Z,87.11
2022-12-08T07:01:53.084Z,86.78
2022-12-08T07:04:27.812Z,86.55
2022-12-08T07:07:03.510Z,86.79
2022-12-08T07:09:42.062Z,87.24
2022-12-08T07:12:18.135Z,87.77
2022-12-08T07:14:51.052Z,87.18
2022-12-08T07:17:24.263Z,87.98
2022-12-08T07:19:59.796Z,87.30
2022-12-08T07:22:37.373Z,87.19
2022-12-08T07:25:10.212Z,87.66
2022-12-08T07:27:53.165Z,88.28
2022-12-08T07:30:28.292Z,87.61
2022-12-08T07:33:08.221Z,88.19
2022-12-08T07:36:26.380Z,87.91
2022-12-08T07:39:04.413Z,88.31
2022-12-08T07:41:49.338Z,87.73
2022-12-08T07:44:27.687Z,88.32
2022-12-08T07:47:00.368Z,88.26
2022-12-08T07:49:35.394Z,88.54
2022-12-08T07:52:08.229Z,88.38
2022-12-08T07:54:40.801Z,88.10
2022-12-08T07:57:13.400Z,88.30
2022-12-08T07:59:45.945Z,89.05
2022-12-08T08:02:25.736Z,88.47
2022-12-08T08:04:58.997Z,88.72
2022-12-08T08:07:32.181Z,87.01
2022-12-08T08:10:06.890Z,88.20
2022-12-08T08:12:40.394Z,87.57
2022-12-08T08:15:13.394Z,87.47
2022-12-08T08:17:53.317Z,87.21
2022-12-08T08:20:27.087Z,88.18
2022-12-08T08:22:59.874Z,88.53
2022-12-08T08:25:32.473Z,88.10
2022-12-08T08:28:05.230Z,87.98
2022-12-08T08:30:37.946Z,88.09
2022-12-08T08:33:13.473Z,88.22
2022-12-08T08:35:46.425Z,88.07
2022-12-08T08:38:20.961Z,87.69
2022-12-08T08:40:54.174Z,87.70
2022-12-08T08:43:36.075Z,87.46
2022-12-08T08:46:13.649Z,87.79
2022-12-08T08:48:47.977Z,87.58
2022-12-08T08:51:20.618Z,87.55
2022-12-08T08:54:02.208Z,87.35
2022-12-08T08:56:35.250Z,87.30
2022-12-08T08:59:08.109Z,87.79
2022-12-08T09:01:40.933Z,87.61
2022-12-08T09:04:19.504Z,87.47
2022-12-08T09:06:52.414Z,87.90
2022-12-08T09:09:33.327Z,87.13
2022-12-08T09:12:07.365Z,87.45
2022-12-08T09:14:46.167Z,87.34
2022-12-08T09:17:21.835Z,86.72
2022-12-08T09:19:57.210Z,86.86
2022-12-08T09:22:32.567Z,86.50
2022-12-08T09:25:05.961Z,86.62
2022-12-08T09:27:44.967Z,87.08
2022-12-08T09:30:18.825Z,86.95
2022-12-08T09:32:56.857Z,86.61
2022-12-08T09:35:45.865Z,86.50
2022-12-08T09:38:25.872Z,86.15
2022-12-08T09:41:00.367Z,85.63
2022-12-08T09:44:06.026Z,85.88
2022-12-08T09:46:44.214Z,85.69
2022-12-08T09:49:53.465Z,86.25
2022-12-08T09:52:36.523Z,86.28
2022-12-08T09:55:22.548Z,86.16
2022-12-08T09:58:10.312Z,86.11
2022-12-08T10:00:48.040Z,85.55
2022-12-08T10:03:29.101Z,85.71
2022-12-08T10:06:24.876Z,86.24
2022-12-08T10:09:42.173Z,86.00
2022-12-08T10:12:44.742Z,85.77
2022-12-08T10:15:49.468Z,85.32
2022-12-08T10:18:30.905Z,85.87
2022-12-08T10:21:26.033Z,85.92
2022-12-08T10:24:43.521Z,85.82
2022-12-08T10:27:16.154Z,86.36
2022-12-08T10:29:49.090Z,86.61
2022-12-08T10:32:34.066Z,86.06
2022-12-08T10:35:12.975Z,85.77
2022-12-08T10:38:03.957Z,85.83
2022-12-08T10:40:43.819Z,85.90
2022-12-08T10:43:26.183Z,86.04
2022-12-08T10:46:30.696Z,85.83
2022-12-08T10:49:06.623Z,85.46
2022-12-08T10:51:43.584Z,86.26
2022-12-08T10:55:02.447Z,85.74
2022-12-08T10:57:39.192Z,85.85
2022-12-08T11:00:38.836Z,86.26
2022-12-08T11:03:32.294Z,85.75
2022-12-08T11:06:44.653Z,85.95
2022-12-08T11:09:20.205Z,86.17
2022-12-08T11:12:22.416Z,86.89
2022-12-08T11:15:03.485Z,86.58
2022-12-08T11:17:41.264Z,87.02
2022-12-08T11:20:15.399Z,86.36
2022-12-08T11:22:56.522Z,85.42
2022-12-08T11:25:32.370Z,86.47
2022-12-08T11:28:12.605Z,86.32
2022-12-08T11:31:07.269Z,86.60
2022-12-08T11:33:46.852Z,86.67
2022-12-08T11:36:47.504Z,85.92
2022-12-08T11:39:26.868Z,86.30
2022-12-08T11:42:23.405Z,86.44
2022-12-08T11:45:22.090Z,86.30
2022-12-08T11:48:29.470Z,86.60
2022-12-08T11:51:35.148Z,86.47
2022-12-08T11:54:22.188Z,86.32
2022-12-08T11:58:17.070Z,86.27
2022-12-08T12:01:39.392Z,86.94
2022-12-08T12:05:04.709Z,86.25
2022-12-08T12:09:15.132Z,85.80
2022-12-08T12:12:39.659Z,85.44
2022-12-08T12:16:23.831Z,85.28
2022-12-08T12:19:33.577Z,84.12
2022-12-08T12:25:33.809Z,83.95
2022-12-08T12:28:30.604Z,84.32
2022-12-08T12:31:46.714Z,84.41
2022-12-08T12:34:56.252Z,84.17
2022-12-08T12:37:51.558Z,83.81
2022-12-08T12:40:45.469Z,84.70
2022-12-08T12:43:46.147Z,84.26
2022-12-08T12:46:26.887Z,83.99
2022-12-08T12:49:42.441Z,84.61
2022-12-08T12:52:24.060Z,83.95
2022-12-08T12:54:59.498Z,84.61
2022-12-08T12:57:52.109Z,84.80
2022-12-08T13:00:27.924Z,84.74
2022-12-08T13:03:00.786Z,84.37
2022-12-08T13:05:52.211Z,84.38
2022-12-08T13:08:27.971Z,84.23
2022-12-08T13:11:09.772Z,84.43
2022-12-08T13:14:03.595Z,84.83
2022-12-08T13:16:39.774Z,84.63
2022-12-08T13:19:16.336Z,84.85
2022-12-08T13:21:49.006Z,84.31
2022-12-08T13:24:24.471Z,84.38
2022-12-08T13:27:05.962Z,84.43
2022-12-08T13:29:39.960Z,84.35
2022-12-08T13:32:12.398Z,83.39
2022-12-08T13:35:00.200Z,83.63
2022-12-08T13:37:55.260Z,82.85
2022-12-08T13:40:32.043Z,82.93
2022-12-08T13:43:43.501Z,83.00
2022-12-08T13:47:09.924Z,83.00
2022-12-08T13:58:47.343Z,84.14
2022-12-08T14:01:24.697Z,84.13
2022-12-08T14:04:30.883Z,84.67
2022-12-08T14:07:00.805Z,84.76
2022-12-08T14:09:37.197Z,84.24
2022-12-08T14:12:21.908Z,84.51
2022-12-08T14:15:03.794Z,84.31
2022-12-08T14:17:39.494Z,84.45
2022-12-08T14:20:12.110Z,85.04
2022-12-08T14:22:44.720Z,84.10
2022-12-08T14:25:18.389Z,84.52
2022-12-08T14:28:01.208Z,83.81
2022-12-08T14:30:36.218Z,83.81
2022-12-08T14:33:16.779Z,83.92
2022-12-08T14:35:53.700Z,83.32
2022-12-08T14:38:26.793Z,83.76
2022-12-08T14:41:06.678Z,84.00
2022-12-08T14:43:40.884Z,83.31
2022-12-08T14:46:23.370Z,83.63
2022-12-08T14:48:57.934Z,84.07
2022-12-08T14:51:33.176Z,84.09
2022-12-08T14:54:18.754Z,84.48
2022-12-08T14:56:55.418Z,84.27
2022-12-08T14:59:33.231Z,84.51
2022-12-08T15:02:22.623Z,84.93
2022-12-08T15:05:11.249Z,85.21
2022-12-08T15:07:52.602Z,85.22
2022-12-08T15:10:38.035Z,85.21
2022-12-08T15:13:10.435Z,85.59
2022-12-08T15:15:53.907Z,85.70
2022-12-08T15:18:40.703Z,86.08
2022-12-08T15:21:13.291Z,86.72
2022-12-08T15:23:50.316Z,86.40
2022-12-08T15:26:26.192Z,86.21
2022-12-08T15:29:18.908Z,86.03
2022-12-08T15:31:54.925Z,85.93
2022-12-08T15:34:29.238Z,86.23
2022-12-08T15:37:05.000Z,86.75
2022-12-08T15:39:38.664Z,86.84
2022-12-08T15:42:13.118Z,86.83
2022-12-08T15:44:47.781Z,86.50
2022-12-08T15:47:25.858Z,86.72
2022-12-08T15:49:58.495Z,87.12
2022-12-08T15:52:31.149Z,88.15
2022-12-08T15:55:03.910Z,87.44
2022-12-08T15:58:30.836Z,87.80
2022-12-08T16:09:26.261Z,88.14
2022-12-08T16:12:18.149Z,87.98
2022-12-08T16:17:43.353Z,87.41
2022-12-08T16:20:18.130Z,88.24
2022-12-08T16:22:59.292Z,87.54
2022-12-08T16:26:08.909Z,87.77
2022-12-08T16:31:26.238Z,87.82
2022-12-08T16:33:58.972Z,87.47
2022-12-08T16:36:31.789Z,87.47
2022-12-08T16:39:04.418Z,87.99
2022-12-08T16:41:55.517Z,87.15
2022-12-08T16:44:28.153Z,87.41
2022-12-08T16:47:09.779Z,86.82
2022-12-08T16:49:42.351Z,87.17
2022-12-08T16:52:16.434Z,87.88
2022-12-08T16:54:49.064Z,87.97
2022-12-08T16:57:21.585Z,88.04
2022-12-08T16:59:54.236Z,87.82
2022-12-08T17:02:26.793Z,87.64
2022-12-08T17:04:59.472Z,87.90
2022-12-08T17:07:33.968Z,88.44
2022-12-08T17:10:09.190Z,88.32
2022-12-08T17:12:41.969Z,88.28
2022-12-08T17:15:19.391Z,88.17
2022-12-08T17:17:52.767Z,88.40
2022-12-08T17:20:28.341Z,88.82
2022-12-08T17:23:00.804Z,88.25
2022-12-08T17:25:33.399Z,88.00
2022-12-08T17:28:05.961Z,88.29
2022-12-08T17:30:38.766Z,88.19
2022-12-08T17:33:11.328Z,87.71
2022-12-08T17:35:49.011Z,88.09
2022-12-08T17:38:23.520Z,87.60
2022-12-08T17:41:03.348Z,88.06
2022-12-08T17:43:37.379Z,87.29
2022-12-08T17:46:10.010Z,87.88
2022-12-08T17:48:42.645Z,87.54
2022-12-08T17:51:16.417Z,87.90
2022-12-08T17:53:49.011Z,87.34
2022-12-08T17:56:22.004Z,87.23
2022-12-08T17:58:55.127Z,87.16
2022-12-08T18:01:28.011Z,87.57
2022-12-08T18:04:03.189Z,87.74
2022-12-08T18:06:37.621Z,87.31
2022-12-08T18:09:10.370Z,87.20
2022-12-08T18:11:46.126Z,86.90
2022-12-08T18:14:18.704Z,87.26
2022-12-08T18:16:51.448Z,86.99
2022-12-08T18:19:24.356Z,87.31
2022-12-08T18:21:56.975Z,86.76
2022-12-08T18:24:29.807Z,87.21
2022-12-08T18:27:02.563Z,86.85
2022-12-08T18:29:35.132Z,87.29
2022-12-08T18:32:08.404Z,86.92
2022-12-08T18:34:41.000Z,86.10
2022-12-08T18:37:13.550Z,86.70
2022-12-08T18:39:46.104Z,87.04
2022-12-08T18:42:24.986Z,86.52
2022-12-08T18:45:06.844Z,86.75
2022-12-08T18:47:40.720Z,86.37
2022-12-08T18:50:13.362Z,86.57
2022-12-08T18:52:47.071Z,86.17
2022-12-08T18:55:20.047Z,86.09
2022-12-08T18:57:52.650Z,86.00
2022-12-08T19:00:25.230Z,86.44
2022-12-08T19:02:57.807Z,86.38
2022-12-08T19:05:30.381Z,86.40
2022-12-08T19:08:03.779Z,86.44
2022-12-08T19:10:38.498Z,86.58
2022-12-08T19:13:11.144Z,86.70
2022-12-08T19:15:45.718Z,86.78
2022-12-08T19:18:18.634Z,86.88
2022-12-08T19:20:56.656Z,86.22
2022-12-08T19:23:29.364Z,86.55
2022-12-08T19:26:03.989Z,86.39
2022-12-08T19:28:37.184Z,86.36
2022-12-08T19:31:10.565Z,85.99
2022-12-08T19:33:43.306Z,86.32
2022-12-08T19:36:21.097Z,86.22
2022-12-08T19:39:12.406Z,85.94
2022-12-08T19:42:04.271Z,86.58
2022-12-08T19:44:55.109Z,86.45
2022-12-08T19:47:28.026Z,86.10
2022-12-08T19:50:20.121Z,86.46
2022-12-08T19:52:53.067Z,86.24
2022-12-08T19:55:27.059Z,86.17
2022-12-08T19:58:02.097Z,86.42
2022-12-08T20:00:36.766Z,86.50
2022-12-08T20:03:15.396Z,86.95
2022-12-08T20:05:51.154Z,86.71
2022-12-08T20:08:23.767Z,86.80
2022-12-08T20:10:58.959Z,86.53
2022-12-08T20:13:47.853Z,87.09
2022-12-08T20:16:20.765Z,86.62
2022-12-08T20:18:53.367Z,87.37
2022-12-08T20:21:26.018Z,87.35
2022-12-08T20:23:58.766Z,87.67
2022-12-08T20:26:34.047Z,87.77
2022-12-08T20:29:07.137Z,87.52
2022-12-08T20:31:40.189Z,87.77
2022-12-08T20:34:18.282Z,87.35
2022-12-08T20:36:50.823Z,87.70
2022-12-08T20:39:23.727Z,87.91
2022-12-08T20:41:56.669Z,87.61
2022-12-08T20:44:30.133Z,88.11
2022-12-08T20:47:03.077Z,88.60
2022-12-08T20:49:35.956Z,88.58
2022-12-08T20:52:09.453Z,88.24
2022-12-08T20:54:42.267Z,88.67
2022-12-08T20:57:14.845Z,88.15
2022-12-08T20:59:47.792Z,88.36
2022-12-08T21:02:20.651Z,88.46
2022-12-08T21:04:54.298Z,87.65
2022-12-08T21:07:26.962Z,88.35
2022-12-08T21:09:59.662Z,88.78
2022-12-08T21:12:32.303Z,88.60
2022-12-08T21:15:07.788Z,88.59
2022-12-08T21:17:40.924Z,88.89
2022-12-08T21:20:13.649Z,88.25
2022-12-08T21:22:46.475Z,88.60
2022-12-08T21:25:19.259Z,89.57
2022-12-08T21:27:51.731Z,88.36
2022-12-08T21:30:24.407Z,88.27
2022-12-08T21:32:57.075Z,88.62
2022-12-08T21:35:30.018Z,89.48
2022-12-08T21:38:06.450Z,88.34
2022-12-08T21:40:39.329Z,88.05
2022-12-08T21:43:13.705Z,88.45
2022-12-08T21:45:46.363Z,87.62
2022-12-08T21:48:19.171Z,88.45
2022-12-08T21:50:53.426Z,88.49
2022-12-08T21:53:26.601Z,88.29
2022-12-08T21:55:59.514Z,87.48
2022-12-08T21:58:32.703Z,87.55
2022-12-08T22:01:11.502Z,87.99
2022-12-08T22:03:44.667Z,88.21
2022-12-08T22:06:17.686Z,88.13
2022-12-08T22:08:50.488Z,88.42
2022-12-08T22:11:23.686Z,88.33
2022-12-08T22:13:56.392Z,87.78
2022-12-08T22:16:29.094Z,88.20
2022-12-08T22:19:02.014Z,87.60
2022-12-08T22:21:34.820Z,88.31
2022-12-08T22:24:08.290Z,87.71
2022-12-08T22:26:40.956Z,87.84
2022-12-08T22:29:14.112Z,87.90
2022-12-08T22:31:46.716Z,87.40
2022-12-08T22:34:19.540Z,87.59
2022-12-08T22:36:52.106Z,87.50
2022-12-08T22:39:24.711Z,88.04
2022-12-08T22:41:57.157Z,88.59
2022-12-08T22:44:29.761Z,88.35
2022-12-08T22:47:02.319Z,88.30
2022-12-08T22:49:36.392Z,88.04
2022-12-08T22:52:09.135Z,87.94
2022-12-08T22:54:41.951Z,88.10
2022-12-08T22:57:14.906Z,89.06
2022-12-08T22:59:47.435Z,88.45
2022-12-08T23:02:20.153Z,88.21
2022-12-08T23:04:57.578Z,88.42
2022-12-08T23:07:30.683Z,88.16
2022-12-08T23:10:04.129Z,88.49
2022-12-08T23:12:37.102Z,88.91
2022-12-08T23:15:10.059Z,88.18
2022-12-08T23:17:42.931Z,88.30
2022-12-08T23:20:15.619Z,88.12
2022-12-08T23:22:48.132Z,88.47
2022-12-08T23:25:20.625Z,88.16
2022-12-08T23:27:53.340Z,88.24
2022-12-08T23:30:26.216Z,87.84
2022-12-08T23:32:59.359Z,87.47
2022-12-08T23:35:32.179Z,87.70
2022-12-08T23:38:05.106Z,87.13
2022-12-08T23:40:37.621Z,86.86
2022-12-08T23:43:10.133Z,87.25
2022-12-08T23:45:43.393Z,86.51
2022-12-08T23:48:16.005Z,86.58
2022-12-08T23:50:48.660Z,86.86
2022-12-08T23:53:21.643Z,86.86
2022-12-08T23:56:07.835Z,87.58
2022-12-08T23:58:41.697Z,86.94
